sensor_id;sensor_type;location;lat;lon;timestamp;P1;durP1;ratioP1;P2;durP2;ratioP2
8476;SDS011;4275;42.854;23.222;2023-06-19T00:00:30;9.10;;;8.80;;
8476;SDS011;4275;42.854;23.222;2023-06-19T00:02:57;10.18;;;9.88;;
8476;SDS011;4275;42.854;23.222;2023-06-19T00:05:24;10.15;;;9.85;;
8476;SDS011;4275;42.854;23.222;2023-06-19T00:07:51;10.38;;;9.98;;
8476;SDS011;4275;42.854;23.222;2023-06-19T00:10:18;10.70;;;10.30;;
8476;SDS011;4275;42.854;23.222;2023-06-19T00:12:47;10.60;;;10.20;;
8476;SDS011;4275;42.854;23.222;2023-06-19T00:15:14;10.70;;;10.30;;
8476;SDS011;4275;42.854;23.222;2023-06-19T00:17:41;10.60;;;10.20;;
8476;SDS011;4275;42.854;23.222;2023-06-19T00:20:08;10.70;;;10.30;;
8476;SDS011;4275;42.854;23.222;2023-06-19T00:22:35;10.95;;;10.55;;
8476;SDS011;4275;42.854;23.222;2023-06-19T00:25:03;11.10;;;10.70;;
8476;SDS011;4275;42.854;23.222;2023-06-19T00:27:30;11.07;;;10.68;;
8476;SDS011;4275;42.854;23.222;2023-06-19T00:29:58;11.20;;;10.80;;
8476;SDS011;4275;42.854;23.222;2023-06-19T00:32:27;11.10;;;10.70;;
8476;SDS011;4275;42.854;23.222;2023-06-19T00:34:54;10.98;;;10.57;;
8476;SDS011;4275;42.854;23.222;2023-06-19T00:37:21;11.07;;;10.68;;
8476;SDS011;4275;42.854;23.222;2023-06-19T00:39:48;11.27;;;10.88;;
8476;SDS011;4275;42.854;23.222;2023-06-19T00:42:15;10.90;;;10.50;;
8476;SDS011;4275;42.854;23.222;2023-06-19T00:44:42;10.70;;;10.30;;
8476;SDS011;4275;42.854;23.222;2023-06-19T00:47:11;11.15;;;10.75;;
8476;SDS011;4275;42.854;23.222;2023-06-19T00:49:38;11.05;;;10.65;;
8476;SDS011;4275;42.854;23.222;2023-06-19T00:52:06;11.23;;;10.82;;
8476;SDS011;4275;42.854;23.222;2023-06-19T00:54:33;11.25;;;10.85;;
8476;SDS011;4275;42.854;23.222;2023-06-19T00:57:00;12.00;;;11.50;;
8476;SDS011;4275;42.854;23.222;2023-06-19T00:59:28;12.55;;;12.05;;
8476;SDS011;4275;42.854;23.222;2023-06-19T01:01:56;12.60;;;12.10;;
8476;SDS011;4275;42.854;23.222;2023-06-19T01:04:24;13.18;;;12.57;;
8476;SDS011;4275;42.854;23.222;2023-06-19T01:06:53;13.18;;;12.57;;
8476;SDS011;4275;42.854;23.222;2023-06-19T01:09:25;13.40;;;12.80;;
8476;SDS011;4275;42.854;23.222;2023-06-19T01:11:57;12.90;;;12.32;;
8476;SDS011;4275;42.854;23.222;2023-06-19T01:14:30;13.20;;;12.60;;
8476;SDS011;4275;42.854;23.222;2023-06-19T01:17:02;13.30;;;12.70;;
8476;SDS011;4275;42.854;23.222;2023-06-19T01:19:31;13.10;;;12.50;;
8476;SDS011;4275;42.854;23.222;2023-06-19T01:22:01;12.20;;;11.70;;
8476;SDS011;4275;42.854;23.222;2023-06-19T01:24:29;11.00;;;10.60;;
8476;SDS011;4275;42.854;23.222;2023-06-19T01:26:56;10.50;;;10.10;;
8476;SDS011;4275;42.854;23.222;2023-06-19T01:29:23;9.60;;;9.30;;
8476;SDS011;4275;42.854;23.222;2023-06-19T01:31:52;9.60;;;9.30;;
8476;SDS011;4275;42.854;23.222;2023-06-19T01:34:25;10.02;;;9.73;;
8476;SDS011;4275;42.854;23.222;2023-06-19T01:36:54;9.65;;;9.35;;
8476;SDS011;4275;42.854;23.222;2023-06-19T01:39:23;8.95;;;8.65;;
8476;SDS011;4275;42.854;23.222;2023-06-19T01:41:52;8.88;;;8.57;;
8476;SDS011;4275;42.854;23.222;2023-06-19T01:44:20;8.95;;;8.65;;
8476;SDS011;4275;42.854;23.222;2023-06-19T01:46:47;8.88;;;8.57;;
8476;SDS011;4275;42.854;23.222;2023-06-19T01:49:15;9.40;;;9.10;;
8476;SDS011;4275;42.854;23.222;2023-06-19T01:51:42;9.30;;;9.00;;
8476;SDS011;4275;42.854;23.222;2023-06-19T01:54:09;9.68;;;9.38;;
8476;SDS011;4275;42.854;23.222;2023-06-19T01:56:38;9.82;;;9.52;;
8476;SDS011;4275;42.854;23.222;2023-06-19T01:59:05;10.23;;;9.93;;
8476;SDS011;4275;42.854;23.222;2023-06-19T02:01:32;11.10;;;10.70;;
8476;SDS011;4275;42.854;23.222;2023-06-19T02:03:59;10.98;;;10.57;;
8476;SDS011;4275;42.854;23.222;2023-06-19T02:06:26;11.10;;;10.70;;
8476;SDS011;4275;42.854;23.222;2023-06-19T02:08:53;11.20;;;10.80;;
8476;SDS011;4275;42.854;23.222;2023-06-19T02:11:19;11.02;;;10.63;;
8476;SDS011;4275;42.854;23.222;2023-06-19T02:13:48;11.02;;;10.63;;
8476;SDS011;4275;42.854;23.222;2023-06-19T02:16:15;11.63;;;11.23;;
8476;SDS011;4275;42.854;23.222;2023-06-19T02:18:42;11.90;;;11.50;;
8476;SDS011;4275;42.854;23.222;2023-06-19T02:21:09;11.27;;;10.88;;
8476;SDS011;4275;42.854;23.222;2023-06-19T02:23:36;10.85;;;10.45;;
8476;SDS011;4275;42.854;23.222;2023-06-19T02:26:03;10.52;;;10.23;;
8476;SDS011;4275;42.854;23.222;2023-06-19T02:28:30;11.20;;;10.80;;
8476;SDS011;4275;42.854;23.222;2023-06-19T02:30:58;11.00;;;10.60;;
8476;SDS011;4275;42.854;23.222;2023-06-19T02:33:25;10.30;;;10.00;;
8476;SDS011;4275;42.854;23.222;2023-06-19T02:35:52;10.80;;;10.40;;
8476;SDS011;4275;42.854;23.222;2023-06-19T02:38:24;11.10;;;10.70;;
8476;SDS011;4275;42.854;23.222;2023-06-19T02:40:51;10.35;;;10.05;;
8476;SDS011;4275;42.854;23.222;2023-06-19T02:43:18;10.57;;;10.18;;
8476;SDS011;4275;42.854;23.222;2023-06-19T02:45:45;10.50;;;10.10;;
8476;SDS011;4275;42.854;23.222;2023-06-19T02:48:14;10.90;;;10.50;;
8476;SDS011;4275;42.854;23.222;2023-06-19T02:50:41;11.02;;;10.63;;
8476;SDS011;4275;42.854;23.222;2023-06-19T02:53:08;11.70;;;11.30;;
8476;SDS011;4275;42.854;23.222;2023-06-19T02:55:36;12.00;;;11.50;;
8476;SDS011;4275;42.854;23.222;2023-06-19T02:58:03;12.13;;;11.63;;
8476;SDS011;4275;42.854;23.222;2023-06-19T03:00:30;12.30;;;11.80;;
8476;SDS011;4275;42.854;23.222;2023-06-19T03:02:57;11.98;;;11.48;;
8476;SDS011;4275;42.854;23.222;2023-06-19T03:05:25;12.20;;;11.70;;
8476;SDS011;4275;42.854;23.222;2023-06-19T03:07:53;12.50;;;12.00;;
8476;SDS011;4275;42.854;23.222;2023-06-19T03:10:20;12.50;;;12.00;;
8476;SDS011;4275;42.854;23.222;2023-06-19T03:12:47;12.20;;;11.70;;
8476;SDS011;4275;42.854;23.222;2023-06-19T03:15:14;12.30;;;11.80;;
8476;SDS011;4275;42.854;23.222;2023-06-19T03:17:41;12.30;;;11.80;;
8476;SDS011;4275;42.854;23.222;2023-06-19T03:20:08;12.50;;;12.00;;
8476;SDS011;4275;42.854;23.222;2023-06-19T03:22:39;12.48;;;11.98;;
8476;SDS011;4275;42.854;23.222;2023-06-19T03:25:07;13.00;;;12.40;;
8476;SDS011;4275;42.854;23.222;2023-06-19T03:27:35;13.40;;;12.80;;
8476;SDS011;4275;42.854;23.222;2023-06-19T03:30:02;13.80;;;13.10;;
8476;SDS011;4275;42.854;23.222;2023-06-19T03:32:31;14.55;;;13.75;;
8476;SDS011;4275;42.854;23.222;2023-06-19T03:34:58;15.10;;;14.30;;
8476;SDS011;4275;42.854;23.222;2023-06-19T03:37:25;15.73;;;14.82;;
8476;SDS011;4275;42.854;23.222;2023-06-19T03:39:54;16.50;;;15.50;;
8476;SDS011;4275;42.854;23.222;2023-06-19T03:42:21;16.65;;;15.65;;
8476;SDS011;4275;42.854;23.222;2023-06-19T03:44:48;16.75;;;15.75;;
8476;SDS011;4275;42.854;23.222;2023-06-19T03:47:15;16.58;;;15.68;;
8476;SDS011;4275;42.854;23.222;2023-06-19T03:49:43;16.05;;;15.15;;
8476;SDS011;4275;42.854;23.222;2023-06-19T03:52:10;16.23;;;15.23;;
8476;SDS011;4275;42.854;23.222;2023-06-19T03:54:37;16.88;;;15.88;;
8476;SDS011;4275;42.854;23.222;2023-06-19T03:57:05;17.25;;;16.15;;
8476;SDS011;4275;42.854;23.222;2023-06-19T03:59:33;17.08;;;15.98;;
8476;SDS011;4275;42.854;23.222;2023-06-19T04:02:00;17.30;;;16.20;;
8476;SDS011;4275;42.854;23.222;2023-06-19T04:04:27;18.10;;;16.83;;
8476;SDS011;4275;42.854;23.222;2023-06-19T04:06:54;18.70;;;17.30;;
8476;SDS011;4275;42.854;23.222;2023-06-19T04:09:22;19.35;;;17.85;;
8476;SDS011;4275;42.854;23.222;2023-06-19T04:11:49;19.30;;;17.80;;
8476;SDS011;4275;42.854;23.222;2023-06-19T04:14:17;19.98;;;18.48;;
8476;SDS011;4275;42.854;23.222;2023-06-19T04:16:44;19.88;;;18.27;;
8476;SDS011;4275;42.854;23.222;2023-06-19T04:19:11;20.67;;;18.88;;
8476;SDS011;4275;42.854;23.222;2023-06-19T04:21:38;21.55;;;19.65;;
8476;SDS011;4275;42.854;23.222;2023-06-19T04:24:05;21.25;;;19.35;;
8476;SDS011;4275;42.854;23.222;2023-06-19T04:26:34;22.10;;;20.00;;
8476;SDS011;4275;42.854;23.222;2023-06-19T04:29:01;23.17;;;21.17;;
8476;SDS011;4275;42.854;23.222;2023-06-19T04:31:30;22.67;;;20.50;;
8476;SDS011;4275;42.854;23.222;2023-06-19T04:33:57;22.27;;;20.17;;
8476;SDS011;4275;42.854;23.222;2023-06-19T04:36:24;22.17;;;20.08;;
8476;SDS011;4275;42.854;23.222;2023-06-19T04:38:51;21.63;;;19.63;;
8476;SDS011;4275;42.854;23.222;2023-06-19T04:41:18;22.75;;;20.55;;
8476;SDS011;4275;42.854;23.222;2023-06-19T04:43:45;22.70;;;20.50;;
8476;SDS011;4275;42.854;23.222;2023-06-19T04:46:12;22.80;;;20.60;;
8476;SDS011;4275;42.854;23.222;2023-06-19T04:48:40;22.98;;;20.77;;
8476;SDS011;4275;42.854;23.222;2023-06-19T04:51:07;22.95;;;20.75;;
8476;SDS011;4275;42.854;23.222;2023-06-19T04:53:34;23.00;;;20.90;;
8476;SDS011;4275;42.854;23.222;2023-06-19T04:56:01;21.98;;;19.88;;
8476;SDS011;4275;42.854;23.222;2023-06-19T04:58:27;22.58;;;20.27;;
8476;SDS011;4275;42.854;23.222;2023-06-19T05:00:54;20.48;;;18.58;;
8476;SDS011;4275;42.854;23.222;2023-06-19T05:03:21;20.17;;;18.27;;
8476;SDS011;4275;42.854;23.222;2023-06-19T05:05:50;18.60;;;17.00;;
8476;SDS011;4275;42.854;23.222;2023-06-19T05:08:17;17.95;;;16.55;;
8476;SDS011;4275;42.854;23.222;2023-06-19T05:10:47;17.60;;;16.20;;
8476;SDS011;4275;42.854;23.222;2023-06-19T05:13:14;18.58;;;16.98;;
8476;SDS011;4275;42.854;23.222;2023-06-19T05:15:43;19.20;;;17.50;;
8476;SDS011;4275;42.854;23.222;2023-06-19T05:18:10;20.30;;;18.60;;
8476;SDS011;4275;42.854;23.222;2023-06-19T05:20:37;19.65;;;18.05;;
8476;SDS011;4275;42.854;23.222;2023-06-19T05:23:05;20.05;;;18.35;;
8476;SDS011;4275;42.854;23.222;2023-06-19T05:25:32;20.25;;;18.55;;
8476;SDS011;4275;42.854;23.222;2023-06-19T05:27:59;19.33;;;17.73;;
8476;SDS011;4275;42.854;23.222;2023-06-19T05:30:26;19.20;;;17.60;;
8476;SDS011;4275;42.854;23.222;2023-06-19T05:32:53;19.65;;;17.95;;
8476;SDS011;4275;42.854;23.222;2023-06-19T05:35:20;20.50;;;18.80;;
8476;SDS011;4275;42.854;23.222;2023-06-19T05:37:47;19.15;;;17.55;;
8476;SDS011;4275;42.854;23.222;2023-06-19T05:40:16;18.42;;;16.92;;
8476;SDS011;4275;42.854;23.222;2023-06-19T05:42:43;17.77;;;16.38;;
8476;SDS011;4275;42.854;23.222;2023-06-19T05:45:10;17.60;;;16.20;;
8476;SDS011;4275;42.854;23.222;2023-06-19T05:47:37;18.15;;;16.65;;
8476;SDS011;4275;42.854;23.222;2023-06-19T05:50:04;17.85;;;16.35;;
8476;SDS011;4275;42.854;23.222;2023-06-19T05:52:32;18.13;;;16.63;;
8476;SDS011;4275;42.854;23.222;2023-06-19T05:54:59;18.05;;;16.55;;
8476;SDS011;4275;42.854;23.222;2023-06-19T05:57:28;18.13;;;16.60;;
8476;SDS011;4275;42.854;23.222;2023-06-19T05:59:55;18.27;;;16.67;;
8476;SDS011;4275;42.854;23.222;2023-06-19T06:02:22;17.98;;;16.48;;
8476;SDS011;4275;42.854;23.222;2023-06-19T06:04:49;18.33;;;16.73;;
8476;SDS011;4275;42.854;23.222;2023-06-19T06:07:16;18.55;;;16.90;;
8476;SDS011;4275;42.854;23.222;2023-06-19T06:09:43;18.98;;;17.38;;
8476;SDS011;4275;42.854;23.222;2023-06-19T06:12:10;18.60;;;16.90;;
8476;SDS011;4275;42.854;23.222;2023-06-19T06:14:39;18.17;;;16.48;;
8476;SDS011;4275;42.854;23.222;2023-06-19T06:17:07;18.40;;;16.70;;
8476;SDS011;4275;42.854;23.222;2023-06-19T06:19:34;18.33;;;16.63;;
8476;SDS011;4275;42.854;23.222;2023-06-19T06:22:02;18.55;;;16.75;;
8476;SDS011;4275;42.854;23.222;2023-06-19T06:24:29;18.65;;;16.85;;
8476;SDS011;4275;42.854;23.222;2023-06-19T06:26:56;19.27;;;17.38;;
8476;SDS011;4275;42.854;23.222;2023-06-19T06:29:24;19.83;;;17.85;;
8476;SDS011;4275;42.854;23.222;2023-06-19T06:32:02;19.98;;;17.98;;
8476;SDS011;4275;42.854;23.222;2023-06-19T06:34:30;20.00;;;18.00;;
8476;SDS011;4275;42.854;23.222;2023-06-19T06:36:57;20.60;;;18.50;;
8476;SDS011;4275;42.854;23.222;2023-06-19T06:39:24;21.10;;;18.90;;
8476;SDS011;4275;42.854;23.222;2023-06-19T06:41:51;21.15;;;18.90;;
8476;SDS011;4275;42.854;23.222;2023-06-19T06:44:18;20.13;;;18.02;;
8476;SDS011;4275;42.854;23.222;2023-06-19T06:46:45;21.83;;;19.40;;
8476;SDS011;4275;42.854;23.222;2023-06-19T06:49:14;22.73;;;19.70;;
8476;SDS011;4275;42.854;23.222;2023-06-19T06:51:42;21.85;;;19.65;;
8476;SDS011;4275;42.854;23.222;2023-06-19T06:54:09;20.63;;;18.42;;
8476;SDS011;4275;42.854;23.222;2023-06-19T06:56:36;21.45;;;19.15;;
8476;SDS011;4275;42.854;23.222;2023-06-19T06:59:03;20.48;;;18.27;;
8476;SDS011;4275;42.854;23.222;2023-06-19T07:01:30;22.63;;;20.23;;
8476;SDS011;4275;42.854;23.222;2023-06-19T07:03:57;22.70;;;19.67;;
8476;SDS011;4275;42.854;23.222;2023-06-19T07:06:25;22.35;;;19.85;;
8476;SDS011;4275;42.854;23.222;2023-06-19T07:08:52;23.73;;;20.40;;
8476;SDS011;4275;42.854;23.222;2023-06-19T07:11:19;24.70;;;22.00;;
8476;SDS011;4275;42.854;23.222;2023-06-19T07:13:46;22.48;;;19.55;;
8476;SDS011;4275;42.854;23.222;2023-06-19T07:16:14;24.20;;;21.08;;
8476;SDS011;4275;42.854;23.222;2023-06-19T07:18:40;26.10;;;22.60;;
8476;SDS011;4275;42.854;23.222;2023-06-19T07:21:09;25.55;;;22.75;;
8476;SDS011;4275;42.854;23.222;2023-06-19T07:23:40;26.45;;;23.65;;
8476;SDS011;4275;42.854;23.222;2023-06-19T07:26:09;27.60;;;24.70;;
8476;SDS011;4275;42.854;23.222;2023-06-19T07:28:36;26.58;;;23.65;;
8476;SDS011;4275;42.854;23.222;2023-06-19T07:31:03;27.10;;;24.40;;
8476;SDS011;4275;42.854;23.222;2023-06-19T07:33:30;27.35;;;24.45;;
8476;SDS011;4275;42.854;23.222;2023-06-19T07:35:57;27.10;;;24.40;;
8476;SDS011;4275;42.854;23.222;2023-06-19T07:38:24;26.95;;;24.05;;
8476;SDS011;4275;42.854;23.222;2023-06-19T07:40:52;24.90;;;22.20;;
8476;SDS011;4275;42.854;23.222;2023-06-19T07:43:19;25.52;;;22.27;;
8476;SDS011;4275;42.854;23.222;2023-06-19T07:45:47;28.10;;;25.20;;
8476;SDS011;4275;42.854;23.222;2023-06-19T07:48:14;27.48;;;24.58;;
8476;SDS011;4275;42.854;23.222;2023-06-19T07:50:41;26.40;;;23.40;;
8476;SDS011;4275;42.854;23.222;2023-06-19T07:53:08;27.10;;;24.20;;
8476;SDS011;4275;42.854;23.222;2023-06-19T07:55:36;28.52;;;25.42;;
8476;SDS011;4275;42.854;23.222;2023-06-19T07:58:04;26.00;;;23.20;;
8476;SDS011;4275;42.854;23.222;2023-06-19T08:00:31;29.08;;;26.08;;
8476;SDS011;4275;42.854;23.222;2023-06-19T08:02:58;27.35;;;24.45;;
8476;SDS011;4275;42.854;23.222;2023-06-19T08:05:25;30.15;;;26.73;;
8476;SDS011;4275;42.854;23.222;2023-06-19T08:07:52;28.85;;;25.40;;
8476;SDS011;4275;42.854;23.222;2023-06-19T08:10:19;28.90;;;25.73;;
8476;SDS011;4275;42.854;23.222;2023-06-19T08:12:46;29.02;;;25.92;;
8476;SDS011;4275;42.854;23.222;2023-06-19T08:15:14;28.20;;;25.20;;
8476;SDS011;4275;42.854;23.222;2023-06-19T08:17:41;26.88;;;24.08;;
8476;SDS011;4275;42.854;23.222;2023-06-19T08:20:09;27.75;;;24.85;;
8476;SDS011;4275;42.854;23.222;2023-06-19T08:22:36;27.85;;;24.88;;
8476;SDS011;4275;42.854;23.222;2023-06-19T08:25:04;28.25;;;25.23;;
8476;SDS011;4275;42.854;23.222;2023-06-19T08:27:31;29.77;;;26.52;;
8476;SDS011;4275;42.854;23.222;2023-06-19T08:29:58;28.75;;;25.02;;
8476;SDS011;4275;42.854;23.222;2023-06-19T08:32:26;28.60;;;24.63;;
8476;SDS011;4275;42.854;23.222;2023-06-19T08:34:53;27.20;;;23.52;;
8476;SDS011;4275;42.854;23.222;2023-06-19T08:37:20;28.05;;;23.95;;
8476;SDS011;4275;42.854;23.222;2023-06-19T08:39:47;29.40;;;26.20;;
8476;SDS011;4275;42.854;23.222;2023-06-19T08:42:14;29.75;;;26.20;;
8476;SDS011;4275;42.854;23.222;2023-06-19T08:44:41;29.60;;;25.67;;
8476;SDS011;4275;42.854;23.222;2023-06-19T08:47:08;29.58;;;25.38;;
8476;SDS011;4275;42.854;23.222;2023-06-19T08:49:37;28.63;;;24.67;;
8476;SDS011;4275;42.854;23.222;2023-06-19T08:52:04;30.13;;;26.83;;
8476;SDS011;4275;42.854;23.222;2023-06-19T08:54:32;28.75;;;25.60;;
8476;SDS011;4275;42.854;23.222;2023-06-19T08:57:09;29.92;;;26.65;;
8476;SDS011;4275;42.854;23.222;2023-06-19T08:59:36;29.40;;;26.23;;
8476;SDS011;4275;42.854;23.222;2023-06-19T09:02:03;28.80;;;25.70;;
8476;SDS011;4275;42.854;23.222;2023-06-19T09:04:31;29.35;;;26.15;;
8476;SDS011;4275;42.854;23.222;2023-06-19T09:07:00;28.45;;;25.35;;
8476;SDS011;4275;42.854;23.222;2023-06-19T09:09:29;29.55;;;26.35;;
8476;SDS011;4275;42.854;23.222;2023-06-19T09:11:58;31.67;;;28.27;;
8476;SDS011;4275;42.854;23.222;2023-06-19T09:14:31;32.10;;;28.70;;
8476;SDS011;4275;42.854;23.222;2023-06-19T09:16:59;30.25;;;26.95;;
8476;SDS011;4275;42.854;23.222;2023-06-19T09:19:27;29.95;;;26.65;;
8476;SDS011;4275;42.854;23.222;2023-06-19T09:22:00;29.85;;;25.92;;
8476;SDS011;4275;42.854;23.222;2023-06-19T09:24:32;28.25;;;24.80;;
8476;SDS011;4275;42.854;23.222;2023-06-19T09:27:07;29.45;;;25.35;;
8476;SDS011;4275;42.854;23.222;2023-06-19T09:29:38;30.35;;;25.52;;
8476;SDS011;4275;42.854;23.222;2023-06-19T09:32:14;29.73;;;25.85;;
8476;SDS011;4275;42.854;23.222;2023-06-19T09:34:42;30.35;;;26.77;;
8476;SDS011;4275;42.854;23.222;2023-06-19T09:37:11;28.80;;;25.38;;
8476;SDS011;4275;42.854;23.222;2023-06-19T09:39:38;27.35;;;24.35;;
8476;SDS011;4275;42.854;23.222;2023-06-19T09:42:07;28.55;;;25.45;;
8476;SDS011;4275;42.854;23.222;2023-06-19T09:44:39;28.50;;;25.40;;
8476;SDS011;4275;42.854;23.222;2023-06-19T09:47:09;28.25;;;25.15;;
8476;SDS011;4275;42.854;23.222;2023-06-19T09:49:47;29.70;;;26.02;;
8476;SDS011;4275;42.854;23.222;2023-06-19T09:52:17;29.00;;;25.58;;
8476;SDS011;4275;42.854;23.222;2023-06-19T09:54:47;29.33;;;25.20;;
8476;SDS011;4275;42.854;23.222;2023-06-19T09:57:16;29.40;;;25.65;;
8476;SDS011;4275;42.854;23.222;2023-06-19T09:59:44;31.67;;;27.08;;
8476;SDS011;4275;42.854;23.222;2023-06-19T10:02:14;31.38;;;26.83;;
8476;SDS011;4275;42.854;23.222;2023-06-19T10:04:43;32.03;;;26.80;;
8476;SDS011;4275;42.854;23.222;2023-06-19T10:07:14;32.75;;;27.77;;
8476;SDS011;4275;42.854;23.222;2023-06-19T10:09:55;29.73;;;25.25;;
8476;SDS011;4275;42.854;23.222;2023-06-19T10:12:33;31.38;;;26.20;;
8476;SDS011;4275;42.854;23.222;2023-06-19T10:15:07;30.58;;;26.30;;
8476;SDS011;4275;42.854;23.222;2023-06-19T10:17:35;31.50;;;28.05;;
8476;SDS011;4275;42.854;23.222;2023-06-19T10:20:03;32.53;;;29.02;;
8476;SDS011;4275;42.854;23.222;2023-06-19T10:22:36;33.15;;;29.55;;
8476;SDS011;4275;42.854;23.222;2023-06-19T10:25:05;30.85;;;27.55;;
8476;SDS011;4275;42.854;23.222;2023-06-19T10:27:34;31.58;;;28.13;;
8476;SDS011;4275;42.854;23.222;2023-06-19T10:30:04;33.45;;;29.85;;
8476;SDS011;4275;42.854;23.222;2023-06-19T10:32:42;30.75;;;26.30;;
8476;SDS011;4275;42.854;23.222;2023-06-19T10:35:10;31.52;;;26.45;;
8476;SDS011;4275;42.854;23.222;2023-06-19T10:37:38;33.40;;;29.27;;
8476;SDS011;4275;42.854;23.222;2023-06-19T10:40:07;34.20;;;29.63;;
8476;SDS011;4275;42.854;23.222;2023-06-19T10:42:36;33.95;;;30.25;;
8476;SDS011;4275;42.854;23.222;2023-06-19T10:45:04;33.63;;;29.80;;
8476;SDS011;4275;42.854;23.222;2023-06-19T10:47:32;34.45;;;30.65;;
8476;SDS011;4275;42.854;23.222;2023-06-19T10:49:59;34.60;;;30.80;;
8476;SDS011;4275;42.854;23.222;2023-06-19T10:52:27;34.55;;;30.75;;
8476;SDS011;4275;42.854;23.222;2023-06-19T10:54:55;32.70;;;27.08;;
8476;SDS011;4275;42.854;23.222;2023-06-19T10:57:30;35.15;;;30.85;;
8476;SDS011;4275;42.854;23.222;2023-06-19T10:59:57;33.30;;;29.08;;
8476;SDS011;4275;42.854;23.222;2023-06-19T11:02:25;33.33;;;29.25;;
8476;SDS011;4275;42.854;23.222;2023-06-19T11:04:52;32.83;;;28.52;;
8476;SDS011;4275;42.854;23.222;2023-06-19T11:07:20;32.08;;;26.73;;
8476;SDS011;4275;42.854;23.222;2023-06-19T11:09:48;33.28;;;27.38;;
8476;SDS011;4275;42.854;23.222;2023-06-19T11:12:19;33.10;;;27.70;;
8476;SDS011;4275;42.854;23.222;2023-06-19T11:14:48;33.03;;;27.63;;
8476;SDS011;4275;42.854;23.222;2023-06-19T11:17:16;32.75;;;27.45;;
8476;SDS011;4275;42.854;23.222;2023-06-19T11:19:46;33.50;;;29.30;;
8476;SDS011;4275;42.854;23.222;2023-06-19T11:22:13;33.08;;;29.15;;
8476;SDS011;4275;42.854;23.222;2023-06-19T11:24:44;32.70;;;29.10;;
8476;SDS011;4275;42.854;23.222;2023-06-19T11:27:18;32.80;;;28.67;;
8476;SDS011;4275;42.854;23.222;2023-06-19T11:29:55;33.03;;;28.23;;
8476;SDS011;4275;42.854;23.222;2023-06-19T11:32:23;30.33;;;26.80;;
8476;SDS011;4275;42.854;23.222;2023-06-19T11:34:56;31.60;;;28.20;;
8476;SDS011;4275;42.854;23.222;2023-06-19T11:37:23;32.92;;;29.52;;
8476;SDS011;4275;42.854;23.222;2023-06-19T11:39:50;32.45;;;29.05;;
8476;SDS011;4275;42.854;23.222;2023-06-19T11:42:17;31.42;;;28.08;;
8476;SDS011;4275;42.854;23.222;2023-06-19T11:44:55;33.88;;;30.42;;
8476;SDS011;4275;42.854;23.222;2023-06-19T11:47:23;34.40;;;30.90;;
8476;SDS011;4275;42.854;23.222;2023-06-19T11:49:50;34.05;;;30.55;;
8476;SDS011;4275;42.854;23.222;2023-06-19T11:52:18;34.05;;;30.55;;
8476;SDS011;4275;42.854;23.222;2023-06-19T11:54:45;30.92;;;27.63;;
8476;SDS011;4275;42.854;23.222;2023-06-19T11:57:12;32.03;;;28.58;;
8476;SDS011;4275;42.854;23.222;2023-06-19T11:59:39;33.35;;;29.90;;
8476;SDS011;4275;42.854;23.222;2023-06-19T12:02:08;29.88;;;26.67;;
8476;SDS011;4275;42.854;23.222;2023-06-19T12:04:35;32.70;;;29.20;;
8476;SDS011;4275;42.854;23.222;2023-06-19T12:07:02;33.15;;;29.65;;
8476;SDS011;4275;42.854;23.222;2023-06-19T12:09:29;32.30;;;28.80;;
8476;SDS011;4275;42.854;23.222;2023-06-19T12:11:57;30.60;;;26.45;;
8476;SDS011;4275;42.854;23.222;2023-06-19T12:14:25;33.97;;;30.48;;
8476;SDS011;4275;42.854;23.222;2023-06-19T12:16:52;34.25;;;30.65;;
8476;SDS011;4275;42.854;23.222;2023-06-19T12:19:20;31.92;;;28.48;;
8476;SDS011;4275;42.854;23.222;2023-06-19T12:21:47;33.50;;;30.00;;
8476;SDS011;4275;42.854;23.222;2023-06-19T12:24:14;33.35;;;29.85;;
8476;SDS011;4275;42.854;23.222;2023-06-19T12:26:41;33.35;;;29.85;;
8476;SDS011;4275;42.854;23.222;2023-06-19T12:29:08;31.50;;;28.17;;
8476;SDS011;4275;42.854;23.222;2023-06-19T12:31:35;31.15;;;27.95;;
8476;SDS011;4275;42.854;23.222;2023-06-19T12:34:02;29.60;;;26.40;;
8476;SDS011;4275;42.854;23.222;2023-06-19T12:36:31;29.85;;;26.60;;
8476;SDS011;4275;42.854;23.222;2023-06-19T12:38:59;29.60;;;26.33;;
8476;SDS011;4275;42.854;23.222;2023-06-19T12:41:27;31.67;;;28.38;;
8476;SDS011;4275;42.854;23.222;2023-06-19T12:43:54;30.88;;;27.58;;
8476;SDS011;4275;42.854;23.222;2023-06-19T12:46:21;31.15;;;26.23;;
8476;SDS011;4275;42.854;23.222;2023-06-19T12:48:48;32.50;;;28.45;;
8476;SDS011;4275;42.854;23.222;2023-06-19T12:51:16;32.53;;;28.35;;
8476;SDS011;4275;42.854;23.222;2023-06-19T12:53:45;35.85;;;32.25;;
8476;SDS011;4275;42.854;23.222;2023-06-19T12:56:12;38.95;;;35.05;;
8476;SDS011;4275;42.854;23.222;2023-06-19T12:58:39;36.13;;;32.33;;
8476;SDS011;4275;42.854;23.222;2023-06-19T13:01:06;36.67;;;32.90;;
8476;SDS011;4275;42.854;23.222;2023-06-19T13:03:33;36.53;;;32.72;;
8476;SDS011;4275;42.854;23.222;2023-06-19T13:06:00;37.35;;;33.63;;
8476;SDS011;4275;42.854;23.222;2023-06-19T13:08:27;38.78;;;34.97;;
8476;SDS011;4275;42.854;23.222;2023-06-19T13:10:55;43.28;;;39.17;;
8476;SDS011;4275;42.854;23.222;2023-06-19T13:13:22;35.88;;;32.17;;
8476;SDS011;4275;42.854;23.222;2023-06-19T13:15:49;36.10;;;32.33;;
8476;SDS011;4275;42.854;23.222;2023-06-19T13:18:17;39.55;;;35.78;;
8476;SDS011;4275;42.854;23.222;2023-06-19T13:20:44;35.40;;;31.70;;
8476;SDS011;4275;42.854;23.222;2023-06-19T13:23:13;35.50;;;31.95;;
8476;SDS011;4275;42.854;23.222;2023-06-19T13:25:40;33.10;;;29.60;;
8476;SDS011;4275;42.854;23.222;2023-06-19T13:28:08;35.60;;;31.88;;
8476;SDS011;4275;42.854;23.222;2023-06-19T13:30:35;40.53;;;36.53;;
8476;SDS011;4275;42.854;23.222;2023-06-19T13:33:02;35.17;;;31.48;;
8476;SDS011;4275;42.854;23.222;2023-06-19T13:35:29;36.03;;;32.22;;
8476;SDS011;4275;42.854;23.222;2023-06-19T13:37:56;39.55;;;35.58;;
8476;SDS011;4275;42.854;23.222;2023-06-19T13:40:24;42.08;;;38.03;;
8476;SDS011;4275;42.854;23.222;2023-06-19T13:42:51;43.95;;;39.75;;
8476;SDS011;4275;42.854;23.222;2023-06-19T13:45:21;43.33;;;39.20;;
8476;SDS011;4275;42.854;23.222;2023-06-19T13:47:48;34.55;;;30.90;;
8476;SDS011;4275;42.854;23.222;2023-06-19T13:50:15;41.75;;;37.75;;
8476;SDS011;4275;42.854;23.222;2023-06-19T13:52:43;36.20;;;32.40;;
8476;SDS011;4275;42.854;23.222;2023-06-19T13:55:11;32.92;;;28.08;;
8476;SDS011;4275;42.854;23.222;2023-06-19T13:57:38;43.70;;;39.50;;
8476;SDS011;4275;42.854;23.222;2023-06-19T14:00:07;39.85;;;35.75;;
8476;SDS011;4275;42.854;23.222;2023-06-19T14:02:37;32.05;;;26.77;;
8476;SDS011;4275;42.854;23.222;2023-06-19T14:05:04;32.17;;;26.17;;
8476;SDS011;4275;42.854;23.222;2023-06-19T14:07:32;31.90;;;25.92;;
8476;SDS011;4275;42.854;23.222;2023-06-19T14:10:00;31.67;;;26.80;;
8476;SDS011;4275;42.854;23.222;2023-06-19T14:12:28;31.85;;;26.83;;
8476;SDS011;4275;42.854;23.222;2023-06-19T14:14:55;30.92;;;27.25;;
8476;SDS011;4275;42.854;23.222;2023-06-19T14:17:22;31.10;;;27.25;;
8476;SDS011;4275;42.854;23.222;2023-06-19T14:19:50;31.80;;;27.13;;
8476;SDS011;4275;42.854;23.222;2023-06-19T14:22:17;31.48;;;28.08;;
8476;SDS011;4275;42.854;23.222;2023-06-19T14:24:44;31.33;;;27.92;;
8476;SDS011;4275;42.854;23.222;2023-06-19T14:27:11;33.10;;;29.60;;
8476;SDS011;4275;42.854;23.222;2023-06-19T14:29:39;34.92;;;31.38;;
8476;SDS011;4275;42.854;23.222;2023-06-19T14:32:06;31.33;;;27.98;;
8476;SDS011;4275;42.854;23.222;2023-06-19T14:34:33;34.80;;;31.10;;
8476;SDS011;4275;42.854;23.222;2023-06-19T14:37:01;31.80;;;28.40;;
8476;SDS011;4275;42.854;23.222;2023-06-19T14:39:29;33.85;;;30.35;;